createdAt,value
2023-04-11T00:02:02.764Z,51.12
2023-04-11T00:04:30.665Z,51.05
2023-04-11T00:06:58.294Z,50.99
2023-04-11T00:09:25.727Z,50.81
2023-04-11T00:11:53.334Z,50.85
2023-04-11T00:14:20.728Z,50.85
2023-04-11T00:16:49.955Z,50.80
2023-04-11T00:19:17.740Z,50.83
2023-04-11T00:21:45.280Z,50.79
2023-04-11T00:24:12.847Z,50.61
2023-04-11T00:26:40.559Z,50.61
2023-04-11T00:29:08.128Z,50.56
2023-04-11T00:31:35.669Z,50.98
2023-04-11T00:34:03.450Z,50.72
2023-04-11T00:36:31.965Z,50.56
2023-04-11T00:39:01.404Z,50.60
2023-04-11T00:41:33.845Z,50.48
2023-04-11T00:44:03.852Z,50.35
2023-04-11T00:46:31.977Z,50.47
2023-04-11T00:48:59.828Z,50.30
2023-04-11T00:51:28.691Z,50.15
2023-04-11T00:53:56.291Z,50.38
2023-04-11T00:56:24.146Z,50.14
2023-04-11T00:58:51.832Z,50.14
2023-04-11T01:01:20.082Z,50.05
2023-04-11T01:03:48.457Z,50.12
2023-04-11T01:06:18.985Z,50.07
2023-04-11T01:08:47.726Z,50.40
2023-04-11T01:11:18.244Z,50.19
2023-04-11T01:13:46.969Z,50.08
2023-04-11T01:16:15.391Z,49.90
2023-04-11T01:18:43.028Z,49.90
2023-04-11T01:21:10.816Z,50.00
2023-04-11T01:23:38.331Z,49.92
2023-04-11T01:26:06.435Z,50.08
2023-04-11T01:28:34.061Z,49.94
2023-04-11T01:31:03.901Z,49.73
2023-04-11T01:33:32.070Z,49.82
2023-04-11T01:36:00.925Z,49.63
2023-04-11T01:38:28.526Z,49.73
2023-04-11T01:40:57.380Z,49.70
2023-04-11T01:43:27.079Z,49.63
2023-04-11T01:45:54.691Z,49.70
2023-04-11T01:48:22.202Z,49.62
2023-04-11T01:50:52.005Z,49.74
2023-04-11T01:53:19.422Z,49.97
2023-04-11T01:55:46.975Z,50.06
2023-04-11T01:58:14.506Z,50.25
2023-04-11T02:00:43.246Z,50.32
2023-04-11T02:03:17.653Z,50.82
2023-04-11T02:05:47.446Z,50.50
2023-04-11T02:08:14.926Z,50.59
2023-04-11T02:10:42.618Z,50.43
2023-04-11T02:13:10.095Z,50.44
2023-04-11T02:15:37.759Z,50.48
2023-04-11T02:18:05.720Z,50.89
2023-04-11T02:20:34.114Z,51.03
2023-04-11T02:23:04.457Z,51.12
2023-04-11T02:25:32.026Z,51.73
2023-04-11T02:28:00.484Z,52.04
2023-04-11T02:30:28.209Z,52.20
2023-04-11T02:32:55.698Z,52.33
2023-04-11T02:35:23.206Z,52.78
2023-04-11T02:37:50.836Z,53.26
2023-04-11T02:40:18.450Z,54.18
2023-04-11T02:42:45.898Z,54.95
2023-04-11T02:45:13.515Z,55.80
2023-04-11T02:47:41.358Z,56.79
2023-04-11T02:50:10.026Z,57.62
2023-04-11T02:52:45.943Z,58.30
2023-04-11T02:55:16.382Z,58.87
2023-04-11T02:57:43.966Z,59.62
2023-04-11T03:00:14.333Z,59.91
2023-04-11T03:02:49.170Z,60.81
2023-04-11T03:05:21.313Z,61.30
2023-04-11T03:07:52.061Z,61.46
2023-04-11T03:10:19.655Z,61.86
2023-04-11T03:12:47.089Z,62.09
2023-04-11T03:15:15.681Z,62.30
2023-04-11T03:17:43.579Z,62.57
2023-04-11T03:20:19.711Z,62.81
2023-04-11T03:22:51.282Z,62.92
2023-04-11T03:25:20.338Z,63.43
2023-04-11T03:27:50.302Z,63.54
2023-04-11T03:30:18.012Z,63.70
2023-04-11T03:32:48.183Z,63.57
2023-04-11T03:35:15.724Z,63.56
2023-04-11T03:37:48.173Z,63.42
2023-04-11T03:40:18.757Z,63.50
2023-04-11T03:42:52.469Z,63.36
2023-04-11T03:45:25.417Z,63.46
2023-04-11T03:47:55.000Z,63.57
2023-04-11T03:50:26.382Z,63.55
2023-04-11T03:52:58.878Z,63.59
2023-04-11T03:55:26.722Z,63.35
2023-04-11T03:57:56.786Z,63.00
2023-04-11T04:00:25.566Z,63.37
2023-04-11T04:03:04.766Z,63.39
2023-04-11T04:05:33.908Z,63.46
2023-04-11T04:08:02.104Z,63.56
2023-04-11T04:10:49.910Z,63.35
2023-04-11T04:13:17.521Z,63.37
2023-04-11T04:15:53.826Z,63.14
2023-04-11T04:18:25.385Z,62.65
2023-04-11T04:20:52.927Z,62.32
2023-04-11T04:23:23.985Z,61.76
2023-04-11T04:26:25.258Z,61.50
2023-04-11T04:29:34.245Z,60.99
2023-04-11T04:32:11.337Z,60.86
2023-04-11T04:34:49.558Z,60.76
2023-04-11T04:37:27.338Z,59.97
2023-04-11T04:40:13.282Z,59.75
2023-04-11T04:42:58.541Z,59.41
2023-04-11T04:45:46.214Z,59.10
2023-04-11T04:48:18.918Z,58.49
2023-04-11T04:50:46.554Z,57.86
2023-04-11T04:53:14.288Z,57.09
2023-04-11T04:55:47.478Z,56.74
2023-04-11T04:58:17.039Z,56.81
2023-04-11T05:00:44.905Z,56.52
2023-04-11T05:03:21.064Z,55.97
2023-04-11T05:05:50.689Z,55.53
2023-04-11T05:08:20.087Z,54.90
2023-04-11T05:10:48.215Z,54.35
2023-04-11T05:13:16.777Z,54.11
2023-04-11T05:15:49.302Z,53.92
2023-04-11T05:18:17.088Z,53.55
2023-04-11T05:20:45.622Z,52.78
2023-04-11T05:23:18.660Z,51.61
2023-04-11T05:25:46.558Z,50.63
2023-04-11T05:28:16.415Z,50.00
2023-04-11T05:30:44.126Z,49.61
2023-04-11T05:33:14.688Z,49.35
2023-04-11T05:35:43.874Z,48.73
2023-04-11T05:38:11.708Z,48.61
2023-04-11T05:40:40.553Z,47.90
2023-04-11T05:43:08.980Z,47.62
2023-04-11T05:45:36.505Z,47.32
2023-04-11T05:48:08.044Z,47.27
2023-04-11T05:50:36.440Z,47.61
2023-04-11T05:53:04.096Z,47.59
2023-04-11T05:55:31.962Z,47.29
2023-04-11T05:58:01.777Z,47.51
2023-04-11T06:00:31.175Z,46.92
2023-04-11T06:03:00.625Z,46.50
2023-04-11T06:05:31.667Z,45.98
2023-04-11T06:08:00.192Z,45.41
2023-04-11T06:10:28.968Z,44.49
2023-04-11T06:12:57.349Z,43.92
2023-04-11T06:15:26.852Z,42.96
2023-04-11T06:17:55.017Z,41.95
2023-04-11T06:20:23.232Z,40.71
2023-04-11T06:22:53.759Z,40.38
2023-04-11T06:25:22.008Z,39.75
2023-04-11T06:27:50.618Z,38.90
2023-04-11T06:30:18.226Z,37.67
2023-04-11T06:32:46.076Z,37.55
2023-04-11T06:35:13.707Z,38.13
2023-04-11T06:37:42.986Z,38.17
2023-04-11T06:40:11.146Z,37.53
2023-04-11T06:42:39.437Z,37.20
2023-04-11T06:45:07.457Z,36.41
2023-04-11T06:47:34.904Z,35.81
2023-04-11T06:50:02.523Z,35.25
2023-04-11T06:52:31.026Z,34.66
2023-04-11T06:54:58.499Z,33.74
2023-04-11T06:57:26.009Z,33.41
2023-04-11T06:59:53.527Z,33.71
2023-04-11T07:02:22.075Z,34.43
2023-04-11T07:04:49.653Z,34.04
2023-04-11T07:07:17.127Z,33.48
2023-04-11T07:09:47.026Z,32.68
2023-04-11T07:12:14.538Z,32.18
2023-04-11T07:14:41.950Z,31.87
2023-04-11T07:17:09.507Z,31.19
2023-04-11T07:19:36.983Z,30.60
2023-04-11T07:22:04.965Z,30.64
2023-04-11T07:24:32.389Z,30.60
2023-04-11T07:27:01.837Z,30.22
2023-04-11T07:29:29.564Z,29.24
2023-04-11T07:31:57.006Z,28.97
2023-04-11T07:34:24.541Z,28.98
2023-04-11T07:36:52.113Z,28.70
2023-04-11T07:39:19.517Z,28.49
2023-04-11T07:41:47.037Z,27.87
2023-04-11T07:44:14.482Z,27.64
2023-04-11T07:46:44.685Z,27.14
2023-04-11T07:49:12.264Z,26.63
2023-04-11T07:51:39.997Z,26.79
2023-04-11T07:54:08.793Z,26.46
2023-04-11T07:56:36.304Z,26.61
2023-04-11T07:59:04.504Z,25.69
2023-04-11T08:01:32.157Z,25.03
2023-04-11T08:04:00.235Z,23.97
2023-04-11T08:06:29.355Z,23.95
2023-04-11T08:08:58.838Z,23.26
2023-04-11T08:11:26.499Z,22.98
2023-04-11T08:13:54.208Z,22.78
2023-04-11T08:16:21.888Z,21.41
2023-04-11T08:18:50.319Z,21.45
2023-04-11T08:21:17.836Z,20.84
2023-04-11T08:23:46.068Z,19.98
2023-04-11T08:26:15.241Z,19.89
2023-04-11T08:28:43.638Z,19.83
2023-04-11T08:31:13.432Z,19.27
2023-04-11T08:33:41.690Z,18.88
2023-04-11T08:36:10.695Z,18.55
2023-04-11T08:38:39.984Z,18.71
2023-04-11T08:41:09.744Z,17.64
2023-04-11T08:43:41.837Z,17.59
2023-04-11T08:46:09.556Z,17.42
2023-04-11T08:48:37.135Z,17.39
2023-04-11T08:51:05.493Z,17.76
2023-04-11T08:53:38.504Z,17.54
2023-04-11T08:56:06.587Z,16.92
2023-04-11T08:58:34.128Z,17.05
2023-04-11T09:01:26.196Z,17.22
2023-04-11T09:03:53.891Z,16.92
2023-04-11T09:06:21.806Z,16.87
2023-04-11T09:08:49.532Z,16.94
2023-04-11T09:11:17.944Z,17.56
2023-04-11T09:13:45.448Z,16.65
2023-04-11T09:16:14.695Z,16.05
2023-04-11T09:18:45.336Z,15.29
2023-04-11T09:21:15.585Z,15.08
2023-04-11T09:23:43.628Z,14.42
2023-04-11T09:26:12.956Z,13.98
2023-04-11T09:28:50.693Z,13.73
2023-04-11T09:31:18.489Z,13.80
2023-04-11T09:33:58.688Z,12.88
2023-04-11T09:36:29.455Z,13.41
2023-04-11T09:38:57.714Z,13.00
2023-04-11T09:41:32.054Z,12.60
2023-04-11T09:44:00.184Z,12.59
2023-04-11T09:46:28.176Z,12.46
2023-04-11T09:48:56.812Z,12.19
2023-04-11T09:51:35.900Z,12.20
2023-04-11T09:54:06.132Z,12.08
2023-04-11T09:56:37.174Z,12.08
2023-04-11T09:59:05.337Z,12.03
2023-04-11T10:01:33.528Z,11.88
2023-04-11T10:04:01.577Z,11.87
2023-04-11T10:06:38.881Z,11.60
2023-04-11T10:09:11.899Z,12.04
2023-04-11T10:11:44.181Z,11.88
2023-04-11T10:14:36.585Z,11.79
2023-04-11T10:17:20.611Z,11.19
2023-04-11T10:19:51.658Z,10.81
2023-04-11T10:22:40.892Z,10.65
2023-04-11T10:25:18.802Z,10.79
2023-04-11T10:27:53.486Z,10.75
2023-04-11T10:30:44.914Z,11.88
2023-04-11T10:33:17.862Z,13.03
2023-04-11T10:36:03.888Z,13.88
2023-04-11T10:38:37.541Z,15.13
2023-04-11T10:41:17.103Z,15.09
2023-04-11T10:43:47.410Z,13.46
2023-04-11T10:46:22.065Z,13.08
2023-04-11T10:49:03.880Z,14.17
2023-04-11T10:51:34.103Z,15.29
2023-04-11T10:54:02.522Z,16.46
2023-04-11T10:56:52.692Z,17.18
2023-04-11T10:59:32.339Z,17.88
2023-04-11T11:02:01.815Z,18.62
2023-04-11T11:04:39.666Z,19.02
2023-04-11T11:07:14.020Z,19.39
2023-04-11T11:09:41.633Z,19.09
2023-04-11T11:12:11.333Z,20.04
2023-04-11T11:14:42.749Z,21.04
2023-04-11T11:17:12.405Z,20.50
2023-04-11T11:19:47.453Z,20.91
2023-04-11T11:22:19.229Z,18.93
2023-04-11T11:24:46.672Z,16.85
2023-04-11T11:27:20.837Z,14.45
2023-04-11T11:29:48.821Z,12.83
2023-04-11T11:32:30.130Z,12.09
2023-04-11T11:34:58.808Z,11.19
2023-04-11T11:37:27.150Z,10.59
2023-04-11T11:39:54.720Z,10.46
2023-04-11T11:42:22.311Z,11.53
2023-04-11T11:44:49.853Z,13.19
2023-04-11T11:47:17.814Z,14.88
2023-04-11T11:49:50.899Z,15.91
2023-04-11T11:52:34.933Z,17.17
2023-04-11T11:55:26.677Z,17.98
2023-04-11T11:57:54.170Z,18.71
2023-04-11T12:00:26.095Z,19.64
2023-04-11T12:02:55.768Z,19.71
2023-04-11T12:05:30.581Z,19.96
2023-04-11T12:08:00.772Z,20.28
2023-04-11T12:10:40.283Z,20.63
2023-04-11T12:13:17.894Z,20.92
2023-04-11T12:15:50.661Z,21.08
2023-04-11T12:18:21.350Z,21.37
2023-04-11T12:20:49.797Z,21.56
2023-04-11T12:23:18.673Z,21.38
2023-04-11T12:25:47.200Z,18.94
2023-04-11T12:28:14.998Z,16.21
2023-04-11T12:30:42.532Z,14.16
2023-04-11T12:33:12.323Z,13.73
2023-04-11T12:35:39.911Z,14.68
2023-04-11T12:38:08.090Z,16.07
2023-04-11T12:40:35.992Z,16.71
2023-04-11T12:43:03.477Z,15.79
2023-04-11T12:45:32.608Z,14.69
2023-04-11T12:48:00.565Z,14.75
2023-04-11T12:50:28.088Z,13.89
2023-04-11T12:52:56.393Z,13.12
2023-04-11T12:55:24.090Z,12.41
2023-04-11T12:57:51.591Z,11.50
2023-04-11T13:00:19.365Z,11.23
2023-04-11T13:02:47.279Z,11.43
2023-04-11T13:05:15.694Z,12.05
2023-04-11T13:07:45.214Z,12.29
2023-04-11T13:10:16.427Z,13.15
2023-04-11T13:12:45.572Z,13.11
2023-04-11T13:15:15.383Z,13.36
2023-04-11T13:17:43.408Z,13.28
2023-04-11T13:20:11.718Z,13.56
2023-04-11T13:22:41.511Z,14.44
2023-04-11T13:25:10.530Z,14.92
2023-04-11T13:27:41.952Z,16.23
2023-04-11T13:30:10.729Z,16.88
2023-04-11T13:32:46.131Z,17.99
2023-04-11T13:35:13.785Z,18.42
2023-04-11T13:37:42.018Z,19.12
2023-04-11T13:40:12.408Z,19.63
2023-04-11T13:42:40.573Z,19.97
2023-04-11T13:45:08.697Z,20.38
2023-04-11T13:47:38.799Z,20.80
2023-04-11T13:50:09.015Z,21.10
2023-04-11T13:52:36.951Z,21.43
2023-04-11T13:55:07.122Z,21.71
2023-04-11T13:57:37.178Z,21.98
2023-04-11T14:00:10.057Z,22.15
2023-04-11T14:02:41.169Z,22.58
2023-04-11T14:05:09.748Z,22.65
2023-04-11T14:07:37.660Z,22.86
2023-04-11T14:10:11.414Z,23.20
2023-04-11T14:12:41.181Z,23.27
2023-04-11T14:15:09.476Z,23.39
2023-04-11T14:17:37.136Z,23.42
2023-04-11T14:20:09.730Z,23.69
2023-04-11T14:22:37.858Z,23.87
2023-04-11T14:25:09.932Z,24.17
2023-04-11T14:27:41.371Z,24.16
2023-04-11T14:30:13.121Z,24.42
2023-04-11T14:32:41.398Z,24.34
2023-04-11T14:35:09.897Z,24.32
2023-04-11T14:37:37.683Z,24.80
2023-04-11T14:40:05.988Z,24.95
2023-04-11T14:42:33.546Z,25.17
2023-04-11T14:45:01.103Z,25.32
2023-04-11T14:47:30.661Z,25.67
2023-04-11T14:49:58.572Z,25.83
2023-04-11T14:52:26.151Z,25.80
2023-04-11T14:54:53.617Z,25.62
2023-04-11T14:57:22.992Z,25.80
2023-04-11T14:59:50.620Z,26.08
2023-04-11T15:02:18.315Z,25.73
2023-04-11T15:04:45.997Z,25.78
2023-04-11T15:07:13.632Z,25.82
2023-04-11T15:09:41.271Z,25.89
2023-04-11T15:12:08.702Z,25.90
2023-04-11T15:14:36.363Z,26.13
2023-04-11T15:17:03.911Z,26.26
2023-04-11T15:19:31.677Z,26.75
2023-04-11T15:21:59.134Z,26.79
2023-04-11T15:24:26.812Z,26.83
2023-04-11T15:26:54.291Z,26.74
2023-04-11T15:29:22.054Z,26.92
2023-04-11T15:31:49.688Z,27.19
2023-04-11T15:34:17.420Z,27.41
2023-04-11T15:36:45.304Z,27.59
2023-04-11T15:39:12.852Z,27.45
2023-04-11T15:41:41.471Z,27.36
2023-04-11T15:44:09.332Z,27.68
2023-04-11T15:46:36.905Z,27.90
2023-04-11T15:49:04.564Z,27.81
2023-04-11T15:51:32.177Z,27.86
2023-04-11T15:53:59.656Z,27.74
2023-04-11T15:56:28.358Z,28.03
2023-04-11T15:58:56.380Z,28.06
2023-04-11T16:01:25.355Z,28.11
2023-04-11T16:03:54.344Z,28.29
2023-04-11T16:06:22.524Z,27.94
2023-04-11T16:08:51.118Z,28.31
2023-04-11T16:11:18.643Z,28.46
2023-04-11T16:13:46.197Z,28.53
2023-04-11T16:16:13.705Z,28.44
2023-04-11T16:18:41.645Z,28.55
2023-04-11T16:21:15.920Z,28.67
2023-04-11T16:23:43.567Z,28.40
2023-04-11T16:26:11.125Z,28.65
2023-04-11T16:28:38.634Z,28.87
2023-04-11T16:31:06.416Z,28.94
2023-04-11T16:33:33.925Z,29.07
2023-04-11T16:36:01.684Z,29.21
2023-04-11T16:38:29.179Z,29.20
2023-04-11T16:40:56.701Z,29.26
2023-04-11T16:43:24.131Z,29.07
2023-04-11T16:45:51.702Z,29.58
2023-04-11T16:48:19.134Z,29.23
2023-04-11T16:50:46.590Z,29.58
2023-04-11T16:53:14.206Z,29.94
2023-04-11T16:55:41.642Z,29.70
2023-04-11T16:58:10.408Z,29.82
2023-04-11T17:00:38.187Z,29.91
2023-04-11T17:03:06.100Z,30.41
2023-04-11T17:05:34.515Z,29.98
2023-04-11T17:08:02.038Z,30.08
2023-04-11T17:10:29.499Z,30.22
2023-04-11T17:12:58.552Z,30.44
2023-04-11T17:15:26.140Z,30.20
2023-04-11T17:17:53.723Z,30.40
2023-04-11T17:20:22.605Z,30.44
2023-04-11T17:22:50.534Z,30.20
2023-04-11T17:25:17.963Z,30.26
2023-04-11T17:27:45.431Z,30.15
2023-04-11T17:30:13.080Z,30.16
2023-04-11T17:32:40.836Z,30.28
2023-04-11T17:35:08.870Z,30.24
2023-04-11T17:37:36.474Z,30.36
2023-04-11T17:40:10.798Z,30.32
2023-04-11T17:42:38.628Z,30.58
2023-04-11T17:45:17.864Z,31.14
2023-04-11T17:47:49.055Z,30.90
2023-04-11T17:50:17.472Z,30.96
2023-04-11T17:52:47.335Z,31.20
2023-04-11T17:55:17.262Z,31.22
2023-04-11T17:57:48.853Z,31.23
2023-04-11T18:00:26.567Z,31.35
2023-04-11T18:02:57.842Z,31.49
2023-04-11T18:05:29.396Z,31.77
2023-04-11T18:07:59.176Z,31.49
2023-04-11T18:10:28.048Z,31.85
2023-04-11T18:12:57.026Z,31.79
2023-04-11T18:15:25.738Z,32.01
2023-04-11T18:17:53.470Z,31.94
2023-04-11T18:20:21.224Z,32.19
2023-04-11T18:22:54.928Z,32.35
2023-04-11T18:25:22.954Z,32.14
2023-04-11T18:27:50.631Z,32.35
2023-04-11T18:30:18.198Z,32.48
2023-04-11T18:32:50.997Z,32.50
2023-04-11T18:35:18.693Z,32.72
2023-04-11T18:37:46.589Z,32.83
2023-04-11T18:40:15.459Z,32.72
2023-04-11T18:42:49.293Z,33.27
2023-04-11T18:45:18.116Z,32.96
2023-04-11T18:48:47.366Z,33.47
2023-04-11T18:52:26.545Z,33.62
2023-04-11T18:59:29.125Z,33.19
2023-04-11T19:01:57.441Z,33.43
2023-04-11T19:04:25.377Z,33.76
2023-04-11T19:06:53.343Z,33.69
2023-04-11T19:09:22.090Z,34.02
2023-04-11T19:11:50.384Z,34.31
2023-04-11T19:14:20.089Z,34.44
2023-04-11T19:16:47.694Z,34.42
2023-04-11T19:19:15.179Z,34.58
2023-04-11T19:21:42.772Z,34.59
2023-04-11T19:24:10.526Z,34.62
2023-04-11T19:26:38.112Z,34.70
2023-04-11T19:29:05.897Z,34.71
2023-04-11T19:31:33.809Z,34.74
2023-04-11T19:34:04.502Z,34.72
2023-04-11T19:36:32.246Z,34.60
2023-04-11T19:38:59.801Z,35.05
2023-04-11T19:41:27.330Z,34.97
2023-04-11T19:43:55.054Z,35.11
2023-04-11T19:46:22.896Z,35.24
2023-04-11T19:48:51.548Z,35.24
2023-04-11T19:51:19.077Z,35.61
2023-04-11T19:53:48.456Z,35.69
2023-04-11T19:56:16.359Z,35.70
2023-04-11T19:58:43.977Z,35.74
2023-04-11T20:01:11.424Z,35.94
2023-04-11T20:03:40.715Z,35.83
2023-04-11T20:06:09.572Z,35.70
2023-04-11T20:08:38.219Z,35.91
2023-04-11T20:11:06.044Z,36.38
2023-04-11T20:13:36.017Z,36.37
2023-04-11T20:16:08.215Z,36.74
2023-04-11T20:18:35.852Z,36.70
2023-04-11T20:21:06.274Z,36.74
2023-04-11T20:23:35.486Z,36.69
2023-04-11T20:26:03.005Z,37.00
2023-04-11T20:28:30.610Z,37.10
2023-04-11T20:30:59.353Z,37.32
2023-04-11T20:33:27.848Z,37.27
2023-04-11T20:35:58.164Z,37.31
2023-04-11T20:38:27.496Z,37.12
2023-04-11T20:40:55.028Z,37.20
2023-04-11T20:43:25.349Z,36.97
2023-04-11T20:45:53.972Z,36.84
2023-04-11T20:48:26.082Z,37.17
2023-04-11T20:50:55.883Z,37.41
2023-04-11T20:53:23.382Z,37.39
2023-04-11T20:55:51.087Z,37.53
2023-04-11T20:58:21.208Z,37.48
2023-04-11T21:00:48.748Z,37.82
2023-04-11T21:03:16.704Z,37.83
2023-04-11T21:05:46.673Z,37.86
2023-04-11T21:08:14.378Z,38.08
2023-04-11T21:10:41.998Z,38.36
2023-04-11T21:13:09.836Z,38.14
2023-04-11T21:15:37.338Z,37.83
2023-04-11T21:18:07.415Z,37.37
2023-04-11T21:20:35.231Z,37.57
2023-04-11T21:23:03.019Z,37.52
2023-04-11T21:25:30.957Z,38.05
2023-04-11T21:27:58.528Z,38.08
2023-04-11T21:30:26.092Z,37.91
2023-04-11T21:32:53.824Z,37.67
2023-04-11T21:35:21.369Z,37.07
2023-04-11T21:37:49.331Z,37.05
2023-04-11T21:40:16.857Z,37.54
2023-04-11T21:42:44.467Z,37.27
2023-04-11T21:45:11.971Z,37.57
2023-04-11T21:47:39.528Z,37.30
2023-04-11T21:50:07.847Z,37.23
2023-04-11T21:52:35.396Z,37.84
2023-04-11T21:55:03.026Z,38.04
2023-04-11T21:57:33.061Z,38.31
2023-04-11T22:00:00.704Z,38.36
2023-04-11T22:02:28.286Z,38.01
2023-04-11T22:05:06.217Z,38.67
2023-04-11T22:07:48.308Z,38.79
2023-04-11T22:10:22.623Z,39.05
2023-04-11T22:12:53.965Z,38.88
2023-04-11T22:15:21.923Z,38.96
2023-04-11T22:17:50.988Z,38.96
2023-04-11T22:20:20.076Z,38.92
2023-04-11T22:22:48.085Z,38.59
2023-04-11T22:25:18.397Z,38.54
2023-04-11T22:27:45.881Z,38.64
2023-04-11T22:30:14.778Z,38.46
2023-04-11T22:32:42.296Z,38.18
2023-04-11T22:35:10.489Z,37.86
2023-04-11T22:37:37.984Z,37.64
2023-04-11T22:40:06.358Z,37.82
2023-04-11T22:42:34.145Z,37.70
2023-04-11T22:45:01.653Z,37.63
2023-04-11T22:47:32.760Z,37.76
2023-04-11T22:50:01.633Z,38.11
2023-04-11T22:52:30.329Z,38.16
2023-04-11T22:54:57.925Z,37.99
2023-04-11T22:57:25.392Z,37.94
2023-04-11T22:59:52.917Z,37.76
2023-04-11T23:02:20.443Z,37.89
2023-04-11T23:04:48.003Z,37.95
2023-04-11T23:07:16.987Z,38.02
2023-04-11T23:09:44.930Z,37.76
2023-04-11T23:12:12.958Z,37.91
2023-04-11T23:14:40.660Z,38.39
2023-04-11T23:17:08.312Z,38.20
2023-04-11T23:19:37.000Z,38.17
2023-04-11T23:22:05.131Z,38.42
2023-04-11T23:24:32.710Z,38.68
2023-04-11T23:27:00.212Z,38.75
2023-04-11T23:29:28.082Z,38.89
2023-04-11T23:31:55.493Z,39.04
2023-04-11T23:34:23.001Z,39.19
2023-04-11T23:36:50.471Z,39.41
2023-04-11T23:39:17.950Z,39.52
2023-04-11T23:41:46.028Z,39.76
2023-04-11T23:44:14.099Z,39.56
2023-04-11T23:46:41.894Z,39.58
2023-04-11T23:49:09.598Z,39.66
2023-04-11T23:51:37.101Z,40.02
2023-04-11T23:54:07.227Z,39.73
2023-04-11T23:56:34.707Z,40.00
2023-04-11T23:59:02.275Z,40.06
